sensor_id;sensor_type;location;lat;lon;timestamp;temperature;humidity
24412;DHT22;12544;46.760;15.942;2023-12-14T00:00:40;5.40;99.90
24412;DHT22;12544;46.760;15.942;2023-12-14T00:03:06;5.50;99.90
24412;DHT22;12544;46.760;15.942;2023-12-14T00:05:32;5.50;99.90
24412;DHT22;12544;46.760;15.942;2023-12-14T00:07:57;5.60;99.90
24412;DHT22;12544;46.760;15.942;2023-12-14T00:10:23;5.50;99.90
24412;DHT22;12544;46.760;15.942;2023-12-14T00:12:49;5.50;99.90
24412;DHT22;12544;46.760;15.942;2023-12-14T00:15:16;5.50;99.90
24412;DHT22;12544;46.760;15.942;2023-12-14T00:17:42;5.50;99.90
24412;DHT22;12544;46.760;15.942;2023-12-14T00:20:08;5.50;99.90
24412;DHT22;12544;46.760;15.942;2023-12-14T00:22:33;5.50;99.90
24412;DHT22;12544;46.760;15.942;2023-12-14T00:24:59;5.50;99.90
24412;DHT22;12544;46.760;15.942;2023-12-14T00:27:25;5.50;99.90
24412;DHT22;12544;46.760;15.942;2023-12-14T00:29:50;5.50;99.90
24412;DHT22;12544;46.760;15.942;2023-12-14T00:32:16;5.40;99.90
24412;DHT22;12544;46.760;15.942;2023-12-14T00:34:41;5.50;99.90
24412;DHT22;12544;46.760;15.942;2023-12-14T00:37:07;5.50;99.90
24412;DHT22;12544;46.760;15.942;2023-12-14T00:39:33;5.50;99.90
24412;DHT22;12544;46.760;15.942;2023-12-14T00:41:58;5.60;99.90
24412;DHT22;12544;46.760;15.942;2023-12-14T00:44:24;5.60;99.90
24412;DHT22;12544;46.760;15.942;2023-12-14T00:46:49;5.70;99.90
24412;DHT22;12544;46.760;15.942;2023-12-14T00:49:15;5.70;99.90
24412;DHT22;12544;46.760;15.942;2023-12-14T00:51:43;5.70;99.90
24412;DHT22;12544;46.760;15.942;2023-12-14T00:54:09;5.70;99.90
24412;DHT22;12544;46.760;15.942;2023-12-14T00:56:34;5.60;99.90
24412;DHT22;12544;46.760;15.942;2023-12-14T00:59:00;5.60;99.90
24412;DHT22;12544;46.760;15.942;2023-12-14T01:04:47;5.40;99.90
24412;DHT22;12544;46.760;15.942;2023-12-14T01:07:13;5.40;99.90
24412;DHT22;12544;46.760;15.942;2023-12-14T01:09:39;5.40;99.90
24412;DHT22;12544;46.760;15.942;2023-12-14T01:12:04;5.40;99.90
24412;DHT22;12544;46.760;15.942;2023-12-14T01:14:30;5.40;99.90
24412;DHT22;12544;46.760;15.942;2023-12-14T01:16:55;5.50;99.90
24412;DHT22;12544;46.760;15.942;2023-12-14T01:19:21;5.50;99.90
24412;DHT22;12544;46.760;15.942;2023-12-14T01:21:47;5.50;99.90
24412;DHT22;12544;46.760;15.942;2023-12-14T01:24:12;5.50;99.90
24412;DHT22;12544;46.760;15.942;2023-12-14T01:26:38;5.50;99.90
24412;DHT22;12544;46.760;15.942;2023-12-14T01:29:03;5.60;99.90
24412;DHT22;12544;46.760;15.942;2023-12-14T01:34:51;5.70;99.90
24412;DHT22;12544;46.760;15.942;2023-12-14T01:37:16;5.70;99.90
24412;DHT22;12544;46.760;15.942;2023-12-14T01:39:42;5.70;99.90
24412;DHT22;12544;46.760;15.942;2023-12-14T01:42:08;5.70;99.90
24412;DHT22;12544;46.760;15.942;2023-12-14T01:44:33;5.70;99.90
24412;DHT22;12544;46.760;15.942;2023-12-14T01:46:59;5.70;99.90
24412;DHT22;12544;46.760;15.942;2023-12-14T01:49:24;5.70;99.90
24412;DHT22;12544;46.760;15.942;2023-12-14T01:51:50;5.70;99.90
24412;DHT22;12544;46.760;15.942;2023-12-14T01:54:15;5.60;99.90
24412;DHT22;12544;46.760;15.942;2023-12-14T01:56:41;5.50;99.90
24412;DHT22;12544;46.760;15.942;2023-12-14T01:59:07;5.40;99.90
24412;DHT22;12544;46.760;15.942;2023-12-14T02:01:43;5.30;99.90
24412;DHT22;12544;46.760;15.942;2023-12-14T02:04:10;5.20;99.90
24412;DHT22;12544;46.760;15.942;2023-12-14T02:09:58;5.00;99.90
24412;DHT22;12544;46.760;15.942;2023-12-14T02:12:24;4.90;99.90
24412;DHT22;12544;46.760;15.942;2023-12-14T02:14:49;4.80;99.90
24412;DHT22;12544;46.760;15.942;2023-12-14T02:20:37;4.70;99.90
24412;DHT22;12544;46.760;15.942;2023-12-14T02:23:02;4.70;99.90
24412;DHT22;12544;46.760;15.942;2023-12-14T02:25:28;4.70;99.90
24412;DHT22;12544;46.760;15.942;2023-12-14T02:27:54;4.80;99.90
24412;DHT22;12544;46.760;15.942;2023-12-14T02:30:19;4.90;99.90
24412;DHT22;12544;46.760;15.942;2023-12-14T02:32:45;4.90;99.90
24412;DHT22;12544;46.760;15.942;2023-12-14T02:35:11;4.90;99.90
24412;DHT22;12544;46.760;15.942;2023-12-14T02:37:37;4.90;99.90
24412;DHT22;12544;46.760;15.942;2023-12-14T02:40:03;4.90;99.90
24412;DHT22;12544;46.760;15.942;2023-12-14T02:45:51;5.00;99.90
24412;DHT22;12544;46.760;15.942;2023-12-14T02:48:17;5.10;99.90
24412;DHT22;12544;46.760;15.942;2023-12-14T02:50:42;5.20;99.90
24412;DHT22;12544;46.760;15.942;2023-12-14T02:53:08;5.20;99.90
24412;DHT22;12544;46.760;15.942;2023-12-14T02:58:56;5.00;99.90
24412;DHT22;12544;46.760;15.942;2023-12-14T03:01:21;5.00;99.90
24412;DHT22;12544;46.760;15.942;2023-12-14T03:03:47;5.00;99.90
24412;DHT22;12544;46.760;15.942;2023-12-14T03:06:13;5.00;99.90
24412;DHT22;12544;46.760;15.942;2023-12-14T03:08:38;5.00;99.90
24412;DHT22;12544;46.760;15.942;2023-12-14T03:11:04;5.00;99.90
24412;DHT22;12544;46.760;15.942;2023-12-14T03:13:29;5.10;99.90
24412;DHT22;12544;46.760;15.942;2023-12-14T03:15:55;5.10;99.90
24412;DHT22;12544;46.760;15.942;2023-12-14T03:18:21;5.10;99.90
24412;DHT22;12544;46.760;15.942;2023-12-14T03:20:46;5.10;99.90
24412;DHT22;12544;46.760;15.942;2023-12-14T03:23:12;5.10;99.90
24412;DHT22;12544;46.760;15.942;2023-12-14T03:25:37;5.10;99.90
24412;DHT22;12544;46.760;15.942;2023-12-14T03:28:03;5.10;99.90
24412;DHT22;12544;46.760;15.942;2023-12-14T03:30:29;5.00;99.90
24412;DHT22;12544;46.760;15.942;2023-12-14T03:32:54;5.00;99.90
24412;DHT22;12544;46.760;15.942;2023-12-14T03:38:42;5.10;99.90
24412;DHT22;12544;46.760;15.942;2023-12-14T03:41:07;5.10;99.90
24412;DHT22;12544;46.760;15.942;2023-12-14T03:43:33;5.20;99.90
24412;DHT22;12544;46.760;15.942;2023-12-14T03:45:59;5.20;99.90
24412;DHT22;12544;46.760;15.942;2023-12-14T03:48:24;5.20;99.90
24412;DHT22;12544;46.760;15.942;2023-12-14T03:50:50;5.10;99.90
24412;DHT22;12544;46.760;15.942;2023-12-14T03:53:15;5.10;99.90
24412;DHT22;12544;46.760;15.942;2023-12-14T03:55:41;5.10;99.90
24412;DHT22;12544;46.760;15.942;2023-12-14T03:58:06;5.10;99.90
24412;DHT22;12544;46.760;15.942;2023-12-14T04:00:32;5.20;99.90
24412;DHT22;12544;46.760;15.942;2023-12-14T04:02:58;5.20;99.90
24412;DHT22;12544;46.760;15.942;2023-12-14T04:05:23;5.20;99.90
24412;DHT22;12544;46.760;15.942;2023-12-14T04:07:49;5.30;99.90
24412;DHT22;12544;46.760;15.942;2023-12-14T04:10:15;5.50;99.90
24412;DHT22;12544;46.760;15.942;2023-12-14T04:12:41;5.50;99.90
24412;DHT22;12544;46.760;15.942;2023-12-14T04:15:08;5.60;99.90
24412;DHT22;12544;46.760;15.942;2023-12-14T04:17:34;5.60;99.90
24412;DHT22;12544;46.760;15.942;2023-12-14T04:20:00;5.60;99.90
24412;DHT22;12544;46.760;15.942;2023-12-14T04:22:26;5.50;99.90
24412;DHT22;12544;46.760;15.942;2023-12-14T04:24:52;5.50;99.90
24412;DHT22;12544;46.760;15.942;2023-12-14T04:27:18;5.50;99.90
24412;DHT22;12544;46.760;15.942;2023-12-14T04:29:44;5.50;99.90
24412;DHT22;12544;46.760;15.942;2023-12-14T04:32:10;5.50;99.90
24412;DHT22;12544;46.760;15.942;2023-12-14T04:34:35;5.50;99.90
24412;DHT22;12544;46.760;15.942;2023-12-14T04:37:01;5.40;99.90
24412;DHT22;12544;46.760;15.942;2023-12-14T04:39:27;5.40;99.90
24412;DHT22;12544;46.760;15.942;2023-12-14T04:41:53;5.40;99.90
24412;DHT22;12544;46.760;15.942;2023-12-14T04:44:19;5.30;99.90
24412;DHT22;12544;46.760;15.942;2023-12-14T04:46:45;5.30;99.90
24412;DHT22;12544;46.760;15.942;2023-12-14T04:49:11;5.30;99.90
24412;DHT22;12544;46.760;15.942;2023-12-14T04:51:36;5.20;99.90
24412;DHT22;12544;46.760;15.942;2023-12-14T04:54:03;5.20;99.90
24412;DHT22;12544;46.760;15.942;2023-12-14T04:56:29;5.20;99.90
24412;DHT22;12544;46.760;15.942;2023-12-14T04:58:54;5.10;99.90
24412;DHT22;12544;46.760;15.942;2023-12-14T05:01:20;5.10;99.90
24412;DHT22;12544;46.760;15.942;2023-12-14T05:03:45;5.00;99.90
24412;DHT22;12544;46.760;15.942;2023-12-14T05:06:11;4.90;99.90
24412;DHT22;12544;46.760;15.942;2023-12-14T05:08:37;4.90;99.90
24412;DHT22;12544;46.760;15.942;2023-12-14T05:11:02;4.80;99.90
24412;DHT22;12544;46.760;15.942;2023-12-14T05:13:28;4.80;99.90
24412;DHT22;12544;46.760;15.942;2023-12-14T05:15:54;4.80;99.90
24412;DHT22;12544;46.760;15.942;2023-12-14T05:18:20;4.80;99.90
24412;DHT22;12544;46.760;15.942;2023-12-14T05:20:45;4.90;99.90
24412;DHT22;12544;46.760;15.942;2023-12-14T05:23:12;4.90;99.90
24412;DHT22;12544;46.760;15.942;2023-12-14T05:25:38;4.90;99.90
24412;DHT22;12544;46.760;15.942;2023-12-14T05:28:04;4.80;99.90
24412;DHT22;12544;46.760;15.942;2023-12-14T05:30:30;4.80;99.90
24412;DHT22;12544;46.760;15.942;2023-12-14T05:32:55;4.80;99.90
24412;DHT22;12544;46.760;15.942;2023-12-14T05:35:21;4.80;99.90
24412;DHT22;12544;46.760;15.942;2023-12-14T05:37:47;4.80;99.90
24412;DHT22;12544;46.760;15.942;2023-12-14T05:40:13;4.80;99.90
24412;DHT22;12544;46.760;15.942;2023-12-14T05:42:39;4.80;99.90
24412;DHT22;12544;46.760;15.942;2023-12-14T05:45:05;4.80;99.90
24412;DHT22;12544;46.760;15.942;2023-12-14T05:47:32;4.80;99.90
24412;DHT22;12544;46.760;15.942;2023-12-14T05:49:59;4.70;99.90
24412;DHT22;12544;46.760;15.942;2023-12-14T05:52:25;4.70;99.90
24412;DHT22;12544;46.760;15.942;2023-12-14T05:54:51;4.80;99.90
24412;DHT22;12544;46.760;15.942;2023-12-14T05:57:16;4.80;99.90
24412;DHT22;12544;46.760;15.942;2023-12-14T05:59:42;4.80;99.90
24412;DHT22;12544;46.760;15.942;2023-12-14T06:02:08;4.80;99.90
24412;DHT22;12544;46.760;15.942;2023-12-14T06:04:33;4.80;99.90
24412;DHT22;12544;46.760;15.942;2023-12-14T06:06:59;4.80;99.90
24412;DHT22;12544;46.760;15.942;2023-12-14T06:09:24;4.80;99.90
24412;DHT22;12544;46.760;15.942;2023-12-14T06:11:58;4.80;99.90
24412;DHT22;12544;46.760;15.942;2023-12-14T06:14:23;4.90;99.90
24412;DHT22;12544;46.760;15.942;2023-12-14T06:16:49;5.00;99.90
24412;DHT22;12544;46.760;15.942;2023-12-14T06:19:14;5.10;99.90
24412;DHT22;12544;46.760;15.942;2023-12-14T06:21:40;5.10;99.90
24412;DHT22;12544;46.760;15.942;2023-12-14T06:24:06;5.10;99.90
24412;DHT22;12544;46.760;15.942;2023-12-14T06:26:31;5.10;99.90
24412;DHT22;12544;46.760;15.942;2023-12-14T06:28:57;5.10;99.90
24412;DHT22;12544;46.760;15.942;2023-12-14T06:31:22;5.10;99.90
24412;DHT22;12544;46.760;15.942;2023-12-14T06:33:48;5.10;99.90
24412;DHT22;12544;46.760;15.942;2023-12-14T06:36:16;5.20;99.90
24412;DHT22;12544;46.760;15.942;2023-12-14T06:38:44;5.10;99.90
24412;DHT22;12544;46.760;15.942;2023-12-14T06:41:21;5.10;99.90
24412;DHT22;12544;46.760;15.942;2023-12-14T06:43:46;5.00;99.90
24412;DHT22;12544;46.760;15.942;2023-12-14T06:46:12;5.00;99.90
24412;DHT22;12544;46.760;15.942;2023-12-14T06:48:38;5.10;99.90
24412;DHT22;12544;46.760;15.942;2023-12-14T06:51:03;5.10;99.90
24412;DHT22;12544;46.760;15.942;2023-12-14T06:53:29;5.10;99.90
24412;DHT22;12544;46.760;15.942;2023-12-14T06:55:55;5.00;99.90
24412;DHT22;12544;46.760;15.942;2023-12-14T06:58:21;5.00;99.90
24412;DHT22;12544;46.760;15.942;2023-12-14T07:00:46;5.00;99.90
24412;DHT22;12544;46.760;15.942;2023-12-14T07:03:13;5.00;99.90
24412;DHT22;12544;46.760;15.942;2023-12-14T07:05:38;5.00;99.90
24412;DHT22;12544;46.760;15.942;2023-12-14T07:08:04;5.00;99.90
24412;DHT22;12544;46.760;15.942;2023-12-14T07:10:30;5.00;99.90
24412;DHT22;12544;46.760;15.942;2023-12-14T07:12:56;5.00;99.90
24412;DHT22;12544;46.760;15.942;2023-12-14T07:15:21;5.00;99.90
24412;DHT22;12544;46.760;15.942;2023-12-14T07:17:47;4.90;99.90
24412;DHT22;12544;46.760;15.942;2023-12-14T07:20:13;4.80;99.90
24412;DHT22;12544;46.760;15.942;2023-12-14T07:22:38;4.80;99.90
24412;DHT22;12544;46.760;15.942;2023-12-14T07:25:04;4.80;99.90
24412;DHT22;12544;46.760;15.942;2023-12-14T07:27:30;4.80;99.90
24412;DHT22;12544;46.760;15.942;2023-12-14T07:29:55;4.80;99.90
24412;DHT22;12544;46.760;15.942;2023-12-14T07:32:21;4.90;99.90
24412;DHT22;12544;46.760;15.942;2023-12-14T07:34:47;5.00;99.90
24412;DHT22;12544;46.760;15.942;2023-12-14T07:37:13;5.10;99.90
24412;DHT22;12544;46.760;15.942;2023-12-14T07:39:39;5.20;99.90
24412;DHT22;12544;46.760;15.942;2023-12-14T07:42:05;5.30;99.90
24412;DHT22;12544;46.760;15.942;2023-12-14T07:44:31;5.40;99.90
24412;DHT22;12544;46.760;15.942;2023-12-14T07:46:59;5.50;99.90
24412;DHT22;12544;46.760;15.942;2023-12-14T07:49:25;5.50;99.90
24412;DHT22;12544;46.760;15.942;2023-12-14T07:51:51;5.50;99.90
24412;DHT22;12544;46.760;15.942;2023-12-14T07:54:17;5.60;99.90
24412;DHT22;12544;46.760;15.942;2023-12-14T07:56:44;5.60;99.90
24412;DHT22;12544;46.760;15.942;2023-12-14T07:59:10;5.60;99.90
24412;DHT22;12544;46.760;15.942;2023-12-14T08:01:36;5.60;99.90
24412;DHT22;12544;46.760;15.942;2023-12-14T08:04:02;5.70;99.90
24412;DHT22;12544;46.760;15.942;2023-12-14T08:06:28;5.70;99.90
24412;DHT22;12544;46.760;15.942;2023-12-14T08:08:54;5.70;99.90
24412;DHT22;12544;46.760;15.942;2023-12-14T08:11:20;5.70;99.90
24412;DHT22;12544;46.760;15.942;2023-12-14T08:13:45;5.80;99.90
24412;DHT22;12544;46.760;15.942;2023-12-14T08:16:12;5.80;99.90
24412;DHT22;12544;46.760;15.942;2023-12-14T08:18:38;5.90;99.90
24412;DHT22;12544;46.760;15.942;2023-12-14T08:21:04;5.90;99.90
24412;DHT22;12544;46.760;15.942;2023-12-14T08:23:29;6.00;99.90
24412;DHT22;12544;46.760;15.942;2023-12-14T08:25:56;6.00;99.90
24412;DHT22;12544;46.760;15.942;2023-12-14T08:28:24;6.00;99.90
24412;DHT22;12544;46.760;15.942;2023-12-14T08:30:51;6.10;99.90
24412;DHT22;12544;46.760;15.942;2023-12-14T08:33:17;6.10;99.90
24412;DHT22;12544;46.760;15.942;2023-12-14T08:35:43;6.10;99.90
24412;DHT22;12544;46.760;15.942;2023-12-14T08:38:09;6.00;99.90
24412;DHT22;12544;46.760;15.942;2023-12-14T08:40:34;5.90;99.90
24412;DHT22;12544;46.760;15.942;2023-12-14T08:43:00;5.90;99.90
24412;DHT22;12544;46.760;15.942;2023-12-14T08:45:25;5.90;99.90
24412;DHT22;12544;46.760;15.942;2023-12-14T08:47:51;5.90;99.90
24412;DHT22;12544;46.760;15.942;2023-12-14T08:50:17;6.00;99.90
24412;DHT22;12544;46.760;15.942;2023-12-14T08:52:43;6.00;99.90
24412;DHT22;12544;46.760;15.942;2023-12-14T08:55:08;6.00;99.90
24412;DHT22;12544;46.760;15.942;2023-12-14T08:57:34;6.00;99.90
24412;DHT22;12544;46.760;15.942;2023-12-14T09:00:02;6.00;99.90
24412;DHT22;12544;46.760;15.942;2023-12-14T09:02:30;6.10;99.90
24412;DHT22;12544;46.760;15.942;2023-12-14T09:04:55;6.10;99.90
24412;DHT22;12544;46.760;15.942;2023-12-14T09:07:21;6.10;99.90
24412;DHT22;12544;46.760;15.942;2023-12-14T09:09:46;6.20;99.90
24412;DHT22;12544;46.760;15.942;2023-12-14T09:12:12;6.30;99.90
24412;DHT22;12544;46.760;15.942;2023-12-14T09:14:38;6.30;99.90
24412;DHT22;12544;46.760;15.942;2023-12-14T09:17:03;6.30;99.90
24412;DHT22;12544;46.760;15.942;2023-12-14T09:19:32;6.30;99.90
24412;DHT22;12544;46.760;15.942;2023-12-14T09:21:58;6.30;99.90
24412;DHT22;12544;46.760;15.942;2023-12-14T09:24:24;6.40;99.90
24412;DHT22;12544;46.760;15.942;2023-12-14T09:26:49;6.40;99.90
24412;DHT22;12544;46.760;15.942;2023-12-14T09:29:15;6.50;99.90
24412;DHT22;12544;46.760;15.942;2023-12-14T09:31:42;6.60;99.90
24412;DHT22;12544;46.760;15.942;2023-12-14T09:34:09;6.70;99.90
24412;DHT22;12544;46.760;15.942;2023-12-14T09:36:34;6.80;99.90
24412;DHT22;12544;46.760;15.942;2023-12-14T09:39:00;6.90;99.90
24412;DHT22;12544;46.760;15.942;2023-12-14T09:41:26;7.00;99.90
24412;DHT22;12544;46.760;15.942;2023-12-14T09:43:52;7.10;99.90
24412;DHT22;12544;46.760;15.942;2023-12-14T09:46:18;7.20;99.90
24412;DHT22;12544;46.760;15.942;2023-12-14T09:48:46;7.30;99.90
24412;DHT22;12544;46.760;15.942;2023-12-14T09:51:12;7.50;99.90
24412;DHT22;12544;46.760;15.942;2023-12-14T09:53:38;7.60;99.90
24412;DHT22;12544;46.760;15.942;2023-12-14T09:56:04;7.70;99.90
24412;DHT22;12544;46.760;15.942;2023-12-14T09:58:32;7.90;99.90
24412;DHT22;12544;46.760;15.942;2023-12-14T10:00:58;8.10;99.90
24412;DHT22;12544;46.760;15.942;2023-12-14T10:03:27;8.30;99.90
24412;DHT22;12544;46.760;15.942;2023-12-14T10:05:54;8.50;99.90
24412;DHT22;12544;46.760;15.942;2023-12-14T10:08:21;8.60;99.90
24412;DHT22;12544;46.760;15.942;2023-12-14T10:16:43;8.80;99.90
24412;DHT22;12544;46.760;15.942;2023-12-14T10:19:09;8.90;99.90
24412;DHT22;12544;46.760;15.942;2023-12-14T10:21:35;9.00;99.90
24412;DHT22;12544;46.760;15.942;2023-12-14T10:24:01;9.00;99.90
24412;DHT22;12544;46.760;15.942;2023-12-14T10:26:27;9.10;99.90
24412;DHT22;12544;46.760;15.942;2023-12-14T10:28:53;9.20;99.90
24412;DHT22;12544;46.760;15.942;2023-12-14T10:31:19;9.30;99.90
24412;DHT22;12544;46.760;15.942;2023-12-14T10:33:45;9.40;99.90
24412;DHT22;12544;46.760;15.942;2023-12-14T10:36:13;9.50;99.90
24412;DHT22;12544;46.760;15.942;2023-12-14T10:38:40;9.50;99.90
24412;DHT22;12544;46.760;15.942;2023-12-14T10:41:08;9.40;99.90
24412;DHT22;12544;46.760;15.942;2023-12-14T10:43:36;9.40;99.90
24412;DHT22;12544;46.760;15.942;2023-12-14T10:46:07;9.30;99.90
24412;DHT22;12544;46.760;15.942;2023-12-14T10:48:35;9.30;99.90
24412;DHT22;12544;46.760;15.942;2023-12-14T10:51:05;9.30;99.90
24412;DHT22;12544;46.760;15.942;2023-12-14T10:53:32;9.30;99.90
24412;DHT22;12544;46.760;15.942;2023-12-14T10:56:00;9.40;99.90
24412;DHT22;12544;46.760;15.942;2023-12-14T10:58:47;9.30;99.90
24412;DHT22;12544;46.760;15.942;2023-12-14T11:01:15;9.10;99.90
24412;DHT22;12544;46.760;15.942;2023-12-14T11:03:42;8.90;99.90
24412;DHT22;12544;46.760;15.942;2023-12-14T11:08:48;8.70;99.90
24412;DHT22;12544;46.760;15.942;2023-12-14T11:11:15;8.60;99.90
24412;DHT22;12544;46.760;15.942;2023-12-14T11:13:53;8.70;99.90
24412;DHT22;12544;46.760;15.942;2023-12-14T11:16:20;8.60;99.90
24412;DHT22;12544;46.760;15.942;2023-12-14T11:18:47;8.60;99.90
24412;DHT22;12544;46.760;15.942;2023-12-14T11:21:18;8.60;99.90
24412;DHT22;12544;46.760;15.942;2023-12-14T11:23:50;8.60;99.90
24412;DHT22;12544;46.760;15.942;2023-12-14T11:26:21;8.60;99.90
24412;DHT22;12544;46.760;15.942;2023-12-14T11:32:08;8.60;99.90
24412;DHT22;12544;46.760;15.942;2023-12-14T11:34:34;8.60;99.90
24412;DHT22;12544;46.760;15.942;2023-12-14T11:37:00;8.60;99.90
24412;DHT22;12544;46.760;15.942;2023-12-14T11:39:30;8.70;99.90
24412;DHT22;12544;46.760;15.942;2023-12-14T11:45:17;8.60;99.90
24412;DHT22;12544;46.760;15.942;2023-12-14T11:47:43;8.50;99.90
24412;DHT22;12544;46.760;15.942;2023-12-14T11:50:09;8.50;99.90
24412;DHT22;12544;46.760;15.942;2023-12-14T11:52:37;8.50;99.90
24412;DHT22;12544;46.760;15.942;2023-12-14T11:55:03;8.50;99.90
24412;DHT22;12544;46.760;15.942;2023-12-14T11:57:29;8.50;99.90
24412;DHT22;12544;46.760;15.942;2023-12-14T11:59:59;8.50;99.90
24412;DHT22;12544;46.760;15.942;2023-12-14T12:02:25;8.60;99.90
24412;DHT22;12544;46.760;15.942;2023-12-14T12:04:51;8.60;99.90
24412;DHT22;12544;46.760;15.942;2023-12-14T12:07:19;8.60;99.90
24412;DHT22;12544;46.760;15.942;2023-12-14T12:09:45;8.60;99.90
24412;DHT22;12544;46.760;15.942;2023-12-14T12:12:12;8.70;99.90
24412;DHT22;12544;46.760;15.942;2023-12-14T12:14:39;8.70;99.90
24412;DHT22;12544;46.760;15.942;2023-12-14T12:17:05;8.60;99.90
24412;DHT22;12544;46.760;15.942;2023-12-14T12:19:36;8.70;99.90
24412;DHT22;12544;46.760;15.942;2023-12-14T12:22:02;8.70;99.90
24412;DHT22;12544;46.760;15.942;2023-12-14T12:24:29;8.70;99.90
24412;DHT22;12544;46.760;15.942;2023-12-14T12:26:55;8.70;99.90
24412;DHT22;12544;46.760;15.942;2023-12-14T12:29:21;8.80;99.90
24412;DHT22;12544;46.760;15.942;2023-12-14T12:34:51;8.80;99.90
24412;DHT22;12544;46.760;15.942;2023-12-14T12:37:18;8.80;99.90
24412;DHT22;12544;46.760;15.942;2023-12-14T12:39:43;8.80;99.90
24412;DHT22;12544;46.760;15.942;2023-12-14T12:42:09;8.80;99.90
24412;DHT22;12544;46.760;15.942;2023-12-14T12:44:34;8.80;99.90
24412;DHT22;12544;46.760;15.942;2023-12-14T12:47:00;8.80;99.90
24412;DHT22;12544;46.760;15.942;2023-12-14T12:49:26;8.80;99.90
24412;DHT22;12544;46.760;15.942;2023-12-14T12:51:53;8.80;99.90
24412;DHT22;12544;46.760;15.942;2023-12-14T12:57:41;9.00;99.90
24412;DHT22;12544;46.760;15.942;2023-12-14T13:00:10;9.00;99.90
24412;DHT22;12544;46.760;15.942;2023-12-14T13:02:40;9.10;99.90
24412;DHT22;12544;46.760;15.942;2023-12-14T13:05:07;9.10;99.90
24412;DHT22;12544;46.760;15.942;2023-12-14T13:07:36;9.20;99.90
24412;DHT22;12544;46.760;15.942;2023-12-14T13:10:03;9.20;99.90
24412;DHT22;12544;46.760;15.942;2023-12-14T13:12:29;9.30;99.90
24412;DHT22;12544;46.760;15.942;2023-12-14T13:14:55;9.40;99.90
24412;DHT22;12544;46.760;15.942;2023-12-14T13:17:21;9.50;99.90
24412;DHT22;12544;46.760;15.942;2023-12-14T13:19:46;9.50;99.90
24412;DHT22;12544;46.760;15.942;2023-12-14T13:25:34;9.40;99.90
24412;DHT22;12544;46.760;15.942;2023-12-14T13:28:00;9.40;99.90
24412;DHT22;12544;46.760;15.942;2023-12-14T13:30:26;9.40;99.90
24412;DHT22;12544;46.760;15.942;2023-12-14T13:32:52;9.30;99.90
24412;DHT22;12544;46.760;15.942;2023-12-14T13:35:19;9.30;99.90
24412;DHT22;12544;46.760;15.942;2023-12-14T13:37:45;9.30;99.90
24412;DHT22;12544;46.760;15.942;2023-12-14T13:40:12;9.30;99.90
24412;DHT22;12544;46.760;15.942;2023-12-14T13:42:38;9.40;99.90
24412;DHT22;12544;46.760;15.942;2023-12-14T13:45:04;9.40;99.90
24412;DHT22;12544;46.760;15.942;2023-12-14T13:47:30;9.50;99.90
24412;DHT22;12544;46.760;15.942;2023-12-14T13:49:55;9.50;99.90
24412;DHT22;12544;46.760;15.942;2023-12-14T13:52:21;9.60;99.90
24412;DHT22;12544;46.760;15.942;2023-12-14T13:54:46;9.60;99.90
24412;DHT22;12544;46.760;15.942;2023-12-14T13:57:12;9.50;99.90
24412;DHT22;12544;46.760;15.942;2023-12-14T13:59:37;9.50;99.90
24412;DHT22;12544;46.760;15.942;2023-12-14T14:02:03;9.50;99.90
24412;DHT22;12544;46.760;15.942;2023-12-14T14:04:29;9.40;99.90
24412;DHT22;12544;46.760;15.942;2023-12-14T14:06:54;9.40;99.90
24412;DHT22;12544;46.760;15.942;2023-12-14T14:09:22;9.30;99.90
24412;DHT22;12544;46.760;15.942;2023-12-14T14:11:47;9.30;99.90
24412;DHT22;12544;46.760;15.942;2023-12-14T14:14:14;9.30;99.90
24412;DHT22;12544;46.760;15.942;2023-12-14T14:16:40;9.30;99.90
24412;DHT22;12544;46.760;15.942;2023-12-14T14:19:06;9.20;99.90
24412;DHT22;12544;46.760;15.942;2023-12-14T14:21:31;9.20;99.90
24412;DHT22;12544;46.760;15.942;2023-12-14T14:23:57;9.20;99.90
24412;DHT22;12544;46.760;15.942;2023-12-14T14:26:23;9.10;99.90
24412;DHT22;12544;46.760;15.942;2023-12-14T14:28:48;9.10;99.90
24412;DHT22;12544;46.760;15.942;2023-12-14T14:31:14;9.10;99.90
24412;DHT22;12544;46.760;15.942;2023-12-14T14:33:39;9.10;99.90
24412;DHT22;12544;46.760;15.942;2023-12-14T14:36:05;9.10;99.90
24412;DHT22;12544;46.760;15.942;2023-12-14T14:38:31;9.00;99.90
24412;DHT22;12544;46.760;15.942;2023-12-14T14:40:57;8.90;99.90
24412;DHT22;12544;46.760;15.942;2023-12-14T14:43:23;8.90;99.90
24412;DHT22;12544;46.760;15.942;2023-12-14T14:45:49;8.90;99.90
24412;DHT22;12544;46.760;15.942;2023-12-14T14:48:15;8.80;99.90
24412;DHT22;12544;46.760;15.942;2023-12-14T14:50:40;8.80;99.90
24412;DHT22;12544;46.760;15.942;2023-12-14T14:53:06;8.80;99.90
24412;DHT22;12544;46.760;15.942;2023-12-14T14:55:32;8.70;99.90
24412;DHT22;12544;46.760;15.942;2023-12-14T14:57:58;8.60;99.90
24412;DHT22;12544;46.760;15.942;2023-12-14T15:00:24;8.50;99.90
24412;DHT22;12544;46.760;15.942;2023-12-14T15:02:51;8.50;99.90
24412;DHT22;12544;46.760;15.942;2023-12-14T15:05:16;8.40;99.90
24412;DHT22;12544;46.760;15.942;2023-12-14T15:07:42;8.30;99.90
24412;DHT22;12544;46.760;15.942;2023-12-14T15:10:08;8.20;99.90
24412;DHT22;12544;46.760;15.942;2023-12-14T15:15:55;8.10;99.90
24412;DHT22;12544;46.760;15.942;2023-12-14T15:18:21;8.00;99.90
24412;DHT22;12544;46.760;15.942;2023-12-14T15:20:47;8.00;99.90
24412;DHT22;12544;46.760;15.942;2023-12-14T15:23:14;8.00;99.90
24412;DHT22;12544;46.760;15.942;2023-12-14T15:25:40;7.90;99.90
24412;DHT22;12544;46.760;15.942;2023-12-14T15:28:06;7.90;99.90
24412;DHT22;12544;46.760;15.942;2023-12-14T15:30:31;7.80;99.90
24412;DHT22;12544;46.760;15.942;2023-12-14T15:32:57;7.80;99.90
24412;DHT22;12544;46.760;15.942;2023-12-14T15:35:23;7.80;99.90
24412;DHT22;12544;46.760;15.942;2023-12-14T15:37:48;7.70;99.90
24412;DHT22;12544;46.760;15.942;2023-12-14T15:40:14;7.70;99.90
24412;DHT22;12544;46.760;15.942;2023-12-14T15:42:40;7.60;99.90
24412;DHT22;12544;46.760;15.942;2023-12-14T15:48:27;7.50;99.90
24412;DHT22;12544;46.760;15.942;2023-12-14T15:50:53;7.40;99.90
24412;DHT22;12544;46.760;15.942;2023-12-14T15:53:19;7.40;99.90
24412;DHT22;12544;46.760;15.942;2023-12-14T15:55:45;7.40;99.90
24412;DHT22;12544;46.760;15.942;2023-12-14T15:58:10;7.50;99.90
24412;DHT22;12544;46.760;15.942;2023-12-14T16:00:38;7.50;99.90
24412;DHT22;12544;46.760;15.942;2023-12-14T16:03:05;7.50;99.90
24412;DHT22;12544;46.760;15.942;2023-12-14T16:05:31;7.50;99.90
24412;DHT22;12544;46.760;15.942;2023-12-14T16:07:56;7.50;99.90
24412;DHT22;12544;46.760;15.942;2023-12-14T16:10:22;7.50;99.90
24412;DHT22;12544;46.760;15.942;2023-12-14T16:12:48;7.50;99.90
24412;DHT22;12544;46.760;15.942;2023-12-14T16:15:13;7.50;99.90
24412;DHT22;12544;46.760;15.942;2023-12-14T16:17:39;7.50;99.90